createdAt,value
2024-04-30T00:00:24.335Z,110.51
2024-04-30T00:01:24.378Z,109.27
2024-04-30T00:02:24.349Z,111.22
2024-04-30T00:03:24.362Z,111.91
2024-04-30T00:04:24.376Z,110.36
2024-04-30T00:05:24.390Z,111.70
2024-04-30T00:06:24.348Z,111.29
2024-04-30T00:07:24.363Z,111.88
2024-04-30T00:08:24.339Z,111.65
2024-04-30T00:09:24.348Z,113.64
2024-04-30T00:10:24.388Z,111.65
2024-04-30T00:11:24.386Z,113.46
2024-04-30T00:12:24.401Z,113.14
2024-04-30T00:13:24.522Z,111.45
2024-04-30T00:14:24.497Z,112.33
2024-04-30T00:15:24.518Z,112.76
2024-04-30T00:16:24.654Z,112.26
2024-04-30T00:17:24.727Z,114.27
2024-04-30T00:18:24.720Z,114.01
2024-04-30T00:19:24.786Z,114.34
2024-04-30T00:20:24.845Z,113.15
2024-04-30T00:21:24.806Z,112.48
2024-04-30T00:22:24.939Z,112.40
2024-04-30T00:23:24.919Z,113.74
2024-04-30T00:24:24.984Z,113.06
2024-04-30T00:25:25.014Z,110.88
2024-04-30T00:26:25.116Z,112.99
2024-04-30T00:27:25.069Z,112.92
2024-04-30T00:28:25.412Z,111.70
2024-04-30T00:29:25.177Z,111.86
2024-04-30T00:30:25.226Z,110.89
2024-04-30T00:31:25.288Z,112.61
2024-04-30T00:32:25.430Z,113.06
2024-04-30T00:33:25.379Z,114.25
2024-04-30T00:34:25.381Z,111.91
2024-04-30T00:35:25.396Z,110.80
2024-04-30T00:36:25.449Z,103.67
2024-04-30T00:37:25.508Z,98.86
2024-04-30T00:38:25.546Z,98.38
2024-04-30T00:39:25.566Z,100.20
2024-04-30T00:40:25.670Z,100.58
2024-04-30T00:41:25.655Z,98.10
2024-04-30T00:42:25.699Z,102.04
2024-04-30T00:43:25.792Z,102.04
2024-04-30T00:44:25.783Z,103.81
2024-04-30T00:45:25.810Z,103.04
2024-04-30T00:46:25.879Z,100.94
2024-04-30T00:47:26.010Z,102.55
2024-04-30T00:48:27.322Z,101.32
2024-04-30T00:49:26.025Z,102.39
2024-04-30T00:50:26.019Z,102.09
2024-04-30T00:51:26.059Z,103.11
2024-04-30T00:52:26.146Z,102.08
2024-04-30T00:53:26.182Z,103.78
2024-04-30T00:54:26.215Z,101.15
2024-04-30T00:55:26.339Z,104.36
2024-04-30T00:56:26.267Z,104.97
2024-04-30T00:57:26.309Z,103.81
2024-04-30T00:58:26.865Z,104.82
2024-04-30T00:59:26.414Z,105.23
2024-04-30T01:00:26.450Z,101.69
2024-04-30T01:01:26.550Z,103.71
2024-04-30T01:02:26.569Z,104.02
2024-04-30T01:03:26.622Z,103.40
2024-04-30T01:04:26.673Z,103.55
2024-04-30T01:05:26.628Z,103.32
2024-04-30T01:06:26.683Z,102.32
2024-04-30T01:07:26.814Z,103.54
2024-04-30T01:08:26.838Z,101.79
2024-04-30T01:09:26.776Z,102.84
2024-04-30T01:10:26.849Z,101.84
2024-04-30T01:11:26.940Z,101.56
2024-04-30T01:12:26.922Z,103.20
2024-04-30T01:13:27.007Z,103.24
2024-04-30T01:14:27.012Z,100.37
2024-04-30T01:15:27.107Z,99.60
2024-04-30T01:16:27.130Z,96.76
2024-04-30T01:17:27.252Z,99.76
2024-04-30T01:18:27.363Z,98.05
2024-04-30T01:19:27.252Z,93.57
2024-04-30T01:20:27.290Z,90.44
2024-04-30T01:21:27.323Z,93.17
2024-04-30T01:22:27.438Z,92.74
2024-04-30T01:23:27.411Z,93.42
2024-04-30T01:24:27.450Z,94.34
2024-04-30T01:25:27.538Z,94.04
2024-04-30T01:26:27.526Z,94.33
2024-04-30T01:27:27.571Z,96.38
2024-04-30T01:28:27.898Z,95.24
2024-04-30T01:29:27.668Z,96.40
2024-04-30T01:30:27.710Z,97.51
2024-04-30T01:31:27.816Z,97.33
2024-04-30T01:32:27.861Z,99.54
2024-04-30T01:33:27.901Z,98.39
2024-04-30T01:34:27.926Z,99.34
2024-04-30T01:35:27.910Z,99.96
2024-04-30T01:36:27.947Z,101.61
2024-04-30T01:37:28.111Z,103.52
2024-04-30T01:38:28.025Z,102.88
2024-04-30T01:39:28.068Z,102.05
2024-04-30T01:40:28.146Z,104.53
2024-04-30T01:41:28.199Z,102.65
2024-04-30T01:42:28.196Z,104.51
2024-04-30T01:43:28.348Z,105.32
2024-04-30T01:44:28.288Z,104.06
2024-04-30T01:45:28.321Z,105.54
2024-04-30T01:46:28.388Z,106.24
2024-04-30T01:47:28.507Z,106.98
2024-04-30T01:48:28.476Z,106.61
2024-04-30T01:49:28.602Z,108.62
2024-04-30T01:50:28.556Z,108.31
2024-04-30T01:51:28.594Z,109.30
2024-04-30T01:52:28.696Z,107.19
2024-04-30T01:53:28.841Z,107.37
2024-04-30T01:54:28.689Z,109.17
2024-04-30T01:55:28.759Z,103.72
2024-04-30T01:56:28.799Z,104.95
2024-04-30T01:57:28.846Z,104.88
2024-04-30T01:58:28.916Z,106.00
2024-04-30T01:59:28.923Z,107.66
2024-04-30T02:00:28.977Z,107.46
2024-04-30T02:01:29.045Z,107.91
2024-04-30T02:02:29.125Z,105.98
2024-04-30T02:03:29.116Z,105.61
2024-04-30T02:04:35.901Z,106.19
2024-04-30T02:05:30.178Z,106.25
2024-04-30T02:06:29.134Z,106.53
2024-04-30T02:07:29.154Z,106.66
2024-04-30T02:08:29.145Z,107.45
2024-04-30T02:09:29.130Z,108.47
2024-04-30T02:10:29.195Z,109.12
2024-04-30T02:11:29.209Z,107.41
2024-04-30T02:12:29.171Z,107.04
2024-04-30T02:13:29.532Z,107.58
2024-04-30T02:14:29.132Z,109.14
2024-04-30T02:15:29.165Z,108.12
2024-04-30T02:16:29.222Z,108.89
2024-04-30T02:17:29.275Z,109.12
2024-04-30T02:18:29.364Z,106.79
2024-04-30T02:19:29.290Z,107.48
2024-04-30T02:20:29.230Z,108.80
2024-04-30T02:21:29.246Z,110.33
2024-04-30T02:22:29.343Z,110.37
2024-04-30T02:23:29.353Z,108.59
2024-04-30T02:24:29.360Z,110.25
2024-04-30T02:25:29.473Z,107.96
2024-04-30T02:26:29.462Z,106.03
2024-04-30T02:27:29.502Z,106.64
2024-04-30T02:28:30.024Z,106.51
2024-04-30T02:29:29.583Z,105.33
2024-04-30T02:30:29.662Z,107.52
2024-04-30T02:31:29.860Z,107.24
2024-04-30T02:32:29.775Z,107.03
2024-04-30T02:33:29.782Z,105.91
2024-04-30T02:34:29.947Z,105.04
2024-04-30T02:35:29.916Z,106.53
2024-04-30T02:36:29.920Z,107.83
2024-04-30T02:37:30.020Z,107.31
2024-04-30T02:38:30.424Z,108.77
2024-04-30T02:39:30.078Z,107.44
2024-04-30T02:40:30.173Z,106.86
2024-04-30T02:41:30.171Z,107.43
2024-04-30T02:42:30.239Z,108.81
2024-04-30T02:43:30.326Z,109.10
2024-04-30T02:44:30.341Z,107.99
2024-04-30T02:45:30.388Z,107.65
2024-04-30T02:46:30.566Z,109.45
2024-04-30T02:47:30.615Z,108.21
2024-04-30T02:48:30.922Z,109.50
2024-04-30T02:49:30.679Z,108.78
2024-04-30T02:50:30.609Z,108.74
2024-04-30T02:51:30.649Z,108.21
2024-04-30T02:52:30.747Z,108.60
2024-04-30T02:53:30.891Z,109.22
2024-04-30T02:54:30.815Z,106.91
2024-04-30T02:55:30.923Z,104.27
2024-04-30T02:56:30.925Z,106.21
2024-04-30T02:57:30.949Z,105.96
2024-04-30T02:58:31.114Z,106.11
2024-04-30T02:59:31.066Z,107.79
2024-04-30T03:00:31.146Z,105.88
2024-04-30T03:01:31.218Z,105.23
2024-04-30T03:02:31.238Z,108.56
2024-04-30T03:03:31.338Z,108.57
2024-04-30T03:04:31.340Z,107.59
2024-04-30T03:05:31.446Z,107.46
2024-04-30T03:06:31.390Z,106.88
2024-04-30T03:07:31.502Z,107.54
2024-04-30T03:08:31.505Z,107.72
2024-04-30T03:09:31.552Z,105.49
2024-04-30T03:10:31.735Z,106.58
2024-04-30T03:11:31.727Z,105.40
2024-04-30T03:12:31.715Z,105.13
2024-04-30T03:13:31.899Z,104.33
2024-04-30T03:14:31.775Z,103.59
2024-04-30T03:15:31.824Z,105.83
2024-04-30T03:16:31.915Z,105.98
2024-04-30T03:17:32.033Z,106.46
2024-04-30T03:18:31.982Z,105.48
2024-04-30T03:19:32.124Z,105.06
2024-04-30T03:20:32.072Z,104.79
2024-04-30T03:21:32.122Z,105.19
2024-04-30T03:22:32.251Z,105.29
2024-04-30T03:23:32.222Z,106.08
2024-04-30T03:24:32.275Z,105.92
2024-04-30T03:25:32.419Z,107.68
2024-04-30T03:26:32.441Z,107.29
2024-04-30T03:27:32.417Z,104.83
2024-04-30T03:28:32.898Z,104.18
2024-04-30T03:29:32.529Z,102.57
2024-04-30T03:30:32.664Z,105.28
2024-04-30T03:31:32.708Z,102.50
2024-04-30T03:32:32.783Z,104.26
2024-04-30T03:33:32.974Z,104.40
2024-04-30T03:34:32.808Z,106.02
2024-04-30T03:35:32.855Z,104.57
2024-04-30T03:36:32.901Z,105.37
2024-04-30T03:37:33.017Z,105.67
2024-04-30T03:38:32.982Z,103.82
2024-04-30T03:39:33.024Z,105.44
2024-04-30T03:40:33.113Z,105.74
2024-04-30T03:41:33.115Z,104.97
2024-04-30T03:42:33.180Z,105.90
2024-04-30T03:43:33.324Z,106.88
2024-04-30T03:44:33.261Z,106.86
2024-04-30T03:45:33.336Z,106.62
2024-04-30T03:46:33.497Z,107.02
2024-04-30T03:47:33.513Z,107.41
2024-04-30T03:48:33.934Z,106.82
2024-04-30T03:49:33.636Z,109.05
2024-04-30T03:50:33.594Z,108.83
2024-04-30T03:51:33.630Z,109.47
2024-04-30T03:52:33.848Z,108.47
2024-04-30T03:53:33.695Z,108.99
2024-04-30T03:54:33.776Z,112.23
2024-04-30T03:55:34.015Z,108.23
2024-04-30T03:56:33.899Z,107.50
2024-04-30T03:57:33.892Z,108.92
2024-04-30T03:58:34.424Z,109.74
2024-04-30T03:59:34.013Z,107.66
2024-04-30T04:00:34.092Z,105.94
2024-04-30T04:01:34.153Z,107.52
2024-04-30T04:02:34.175Z,108.92
2024-04-30T04:03:34.189Z,108.40
2024-04-30T04:04:34.326Z,107.07
2024-04-30T04:05:34.312Z,108.00
2024-04-30T04:06:34.352Z,104.78
2024-04-30T04:07:34.442Z,107.14
2024-04-30T04:08:34.430Z,107.38
2024-04-30T04:09:34.459Z,106.52
2024-04-30T04:10:34.555Z,108.04
2024-04-30T04:11:34.640Z,108.61
2024-04-30T04:12:34.620Z,108.67
2024-04-30T04:13:34.737Z,107.69
2024-04-30T04:14:34.736Z,105.02
2024-04-30T04:15:34.810Z,103.86
2024-04-30T04:16:42.539Z,50.00
2024-04-30T04:17:42.622Z,50.00
2024-04-30T04:18:42.548Z,50.00
2024-04-30T04:19:42.607Z,50.00
2024-04-30T04:20:42.548Z,50.00
2024-04-30T04:21:42.576Z,53.01
2024-04-30T04:22:42.602Z,53.72
2024-04-30T04:23:42.604Z,50.75
2024-04-30T04:24:42.551Z,52.56
2024-04-30T04:25:42.627Z,55.84
2024-04-30T04:26:42.569Z,53.71
2024-04-30T04:27:42.571Z,53.16
2024-04-30T04:28:42.684Z,54.77
2024-04-30T04:29:42.575Z,52.41
2024-04-30T04:30:42.574Z,54.18
2024-04-30T04:31:50.319Z,50.00
2024-04-30T04:32:50.293Z,50.00
2024-04-30T04:33:50.324Z,50.00
2024-04-30T04:34:50.316Z,50.00
2024-04-30T04:35:50.338Z,50.00
2024-04-30T04:36:50.328Z,50.69
2024-04-30T04:37:50.369Z,51.60
2024-04-30T04:38:50.355Z,50.70
2024-04-30T04:39:50.404Z,52.49
2024-04-30T04:40:50.402Z,51.44
2024-04-30T04:41:50.363Z,50.11
2024-04-30T04:42:50.309Z,51.49
2024-04-30T04:43:50.393Z,53.34
2024-04-30T04:44:50.349Z,54.96
2024-04-30T04:45:50.347Z,53.49
2024-04-30T04:46:50.342Z,51.12
2024-04-30T04:47:50.487Z,52.82
2024-04-30T04:48:50.321Z,51.18
2024-04-30T04:49:50.357Z,52.03
2024-04-30T04:50:50.314Z,50.75
2024-04-30T04:51:50.324Z,51.05
2024-04-30T04:52:50.329Z,51.15
2024-04-30T04:53:50.353Z,50.71
2024-04-30T04:54:50.310Z,52.01
2024-04-30T04:55:50.399Z,54.83
2024-04-30T04:56:50.352Z,56.04
2024-04-30T04:57:50.336Z,53.06
2024-04-30T04:58:50.351Z,54.91
2024-04-30T04:59:50.325Z,53.41
2024-04-30T05:00:50.433Z,54.53
2024-04-30T05:01:50.487Z,54.44
2024-04-30T05:02:50.373Z,55.85
2024-04-30T05:03:50.497Z,53.56
2024-04-30T05:04:50.381Z,54.28
2024-04-30T05:05:50.359Z,53.94
2024-04-30T05:06:51.503Z,55.48
2024-04-30T05:07:50.352Z,54.54
2024-04-30T05:08:50.396Z,56.09
2024-04-30T05:09:50.432Z,54.30
2024-04-30T05:10:50.553Z,53.42
2024-04-30T05:11:50.514Z,53.02
2024-04-30T05:12:50.547Z,52.47
2024-04-30T05:13:50.610Z,53.81
2024-04-30T05:14:53.472Z,53.11
2024-04-30T05:15:50.647Z,53.21
2024-04-30T05:16:50.740Z,53.41
2024-04-30T05:17:50.780Z,53.51
2024-04-30T05:18:50.682Z,52.00
2024-04-30T05:19:50.670Z,51.02
2024-04-30T05:20:50.650Z,53.75
2024-04-30T05:21:50.645Z,53.25
2024-04-30T05:22:50.668Z,52.10
2024-04-30T05:23:50.662Z,53.31
2024-04-30T05:24:50.670Z,52.00
2024-04-30T05:25:50.682Z,50.70
2024-04-30T05:26:50.659Z,53.31
2024-04-30T05:27:50.706Z,52.20
2024-04-30T05:28:50.707Z,52.80
2024-04-30T05:29:51.408Z,52.92
2024-04-30T05:30:50.664Z,52.62
2024-04-30T05:31:50.672Z,51.43
2024-04-30T05:32:50.708Z,51.97
2024-04-30T05:33:50.711Z,52.52
2024-04-30T05:34:50.743Z,53.49
2024-04-30T05:35:50.798Z,54.58
2024-04-30T05:36:50.810Z,54.59
2024-04-30T05:37:50.866Z,53.92
2024-04-30T05:38:50.901Z,55.56
2024-04-30T05:39:50.942Z,53.78
2024-04-30T05:40:50.987Z,55.17
2024-04-30T05:41:51.040Z,58.04
2024-04-30T05:42:51.058Z,56.18
2024-04-30T05:43:51.105Z,59.01
2024-04-30T05:44:51.126Z,58.64
2024-04-30T05:45:51.171Z,57.46
2024-04-30T05:46:51.263Z,55.10
2024-04-30T05:47:51.248Z,50.00
2024-04-30T05:48:51.305Z,52.25
2024-04-30T05:49:51.357Z,53.26
2024-04-30T05:50:51.387Z,61.67
2024-04-30T05:51:51.406Z,65.42
2024-04-30T05:52:51.425Z,64.38
2024-04-30T05:53:56.234Z,65.45
2024-04-30T05:54:51.465Z,65.54
2024-04-30T05:55:51.472Z,66.05
2024-04-30T05:56:52.406Z,68.25
2024-04-30T05:57:52.383Z,69.82
2024-04-30T05:58:51.463Z,72.81
2024-04-30T05:59:51.474Z,76.89
2024-04-30T06:00:51.522Z,77.67
2024-04-30T06:01:51.567Z,82.76
2024-04-30T06:02:51.486Z,83.05
2024-04-30T06:03:51.962Z,82.05
2024-04-30T06:04:51.544Z,84.45
2024-04-30T06:05:51.469Z,83.30
2024-04-30T06:06:51.482Z,85.38
2024-04-30T06:07:51.482Z,86.47
2024-04-30T06:08:51.499Z,91.06
2024-04-30T06:09:51.501Z,92.01
2024-04-30T06:10:51.767Z,96.37
2024-04-30T06:11:51.655Z,102.19
2024-04-30T06:12:51.722Z,108.53
2024-04-30T06:13:51.764Z,113.55
2024-04-30T06:14:51.841Z,116.48
2024-04-30T06:15:51.948Z,118.53
2024-04-30T06:16:51.999Z,120.47
2024-04-30T06:17:52.113Z,125.61
2024-04-30T06:18:52.135Z,129.12
2024-04-30T06:19:52.192Z,133.91
2024-04-30T06:20:52.232Z,137.40
2024-04-30T06:21:52.309Z,140.05
2024-04-30T06:22:52.377Z,141.62
2024-04-30T06:23:52.480Z,143.49
2024-04-30T06:24:52.484Z,144.64
2024-04-30T06:25:52.564Z,144.86
2024-04-30T06:26:52.582Z,155.38
2024-04-30T06:27:52.657Z,170.08
2024-04-30T06:28:53.020Z,174.04
2024-04-30T06:29:52.774Z,175.50
2024-04-30T06:30:52.816Z,176.25
2024-04-30T06:31:52.851Z,178.90
2024-04-30T06:32:52.944Z,177.26
2024-04-30T06:33:53.665Z,177.84
2024-04-30T06:34:53.094Z,178.52
2024-04-30T06:35:53.046Z,178.61
2024-04-30T06:36:53.088Z,172.16
2024-04-30T06:37:53.172Z,174.16
2024-04-30T06:38:53.199Z,172.79
2024-04-30T06:39:53.316Z,173.60
2024-04-30T06:40:53.450Z,171.69
2024-04-30T06:41:53.374Z,171.54
2024-04-30T06:42:53.467Z,169.39
2024-04-30T06:43:53.505Z,169.31
2024-04-30T06:44:53.600Z,171.07
2024-04-30T06:45:53.587Z,167.93
2024-04-30T06:46:53.634Z,167.52
2024-04-30T06:47:53.786Z,166.96
2024-04-30T06:48:53.768Z,167.76
2024-04-30T06:49:53.840Z,168.34
2024-04-30T06:50:53.832Z,166.96
2024-04-30T06:51:53.866Z,166.36
2024-04-30T06:52:53.958Z,166.61
2024-04-30T06:53:54.399Z,168.66
2024-04-30T06:54:53.997Z,168.04
2024-04-30T06:55:56.370Z,171.21
2024-04-30T06:56:54.204Z,172.73
2024-04-30T06:57:54.239Z,171.68
2024-04-30T06:58:54.334Z,168.00
2024-04-30T06:59:54.341Z,166.49
2024-04-30T07:00:54.407Z,167.38
2024-04-30T07:01:54.437Z,164.98
2024-04-30T07:02:54.503Z,161.28
2024-04-30T07:03:54.950Z,160.12
2024-04-30T07:04:54.634Z,160.82
2024-04-30T07:05:54.591Z,160.19
2024-04-30T07:06:54.668Z,159.52
2024-04-30T07:07:56.099Z,159.53
2024-04-30T07:08:54.938Z,162.83
2024-04-30T07:09:54.736Z,165.02
2024-04-30T07:10:54.872Z,164.04
2024-04-30T07:11:54.804Z,164.84
2024-04-30T07:12:54.819Z,166.71
2024-04-30T07:13:54.815Z,167.60
2024-04-30T07:14:54.840Z,167.84
2024-04-30T07:15:54.875Z,168.53
2024-04-30T07:17:02.539Z,169.78
2024-04-30T07:17:56.017Z,169.84
2024-04-30T07:18:54.929Z,170.06
2024-04-30T07:19:54.996Z,170.71
2024-04-30T07:20:54.933Z,171.88
2024-04-30T07:21:54.929Z,171.16
2024-04-30T07:22:54.988Z,172.90
2024-04-30T07:23:54.972Z,172.48
2024-04-30T07:24:54.966Z,172.50
2024-04-30T07:25:54.987Z,173.63
2024-04-30T07:26:55.033Z,175.19
2024-04-30T07:27:55.127Z,175.52
2024-04-30T07:28:55.116Z,176.26
2024-04-30T07:29:55.158Z,176.98
2024-04-30T07:30:55.176Z,180.08
2024-04-30T07:31:55.289Z,181.46
2024-04-30T07:32:55.336Z,181.29
2024-04-30T07:33:55.472Z,180.81
2024-04-30T07:34:55.344Z,183.42
2024-04-30T07:35:55.379Z,181.66
2024-04-30T07:36:55.421Z,180.78
2024-04-30T07:37:55.480Z,180.41
2024-04-30T07:38:55.558Z,178.06
2024-04-30T07:39:55.608Z,177.03
2024-04-30T07:40:55.677Z,179.21
2024-04-30T07:41:55.771Z,180.68
2024-04-30T07:42:55.846Z,180.54
2024-04-30T07:43:55.948Z,180.70
2024-04-30T07:44:55.928Z,183.62
2024-04-30T07:45:56.001Z,181.92
2024-04-30T07:46:56.269Z,185.54
2024-04-30T07:47:56.164Z,181.25
2024-04-30T07:48:56.481Z,172.41
2024-04-30T07:49:56.229Z,162.07
2024-04-30T07:50:56.309Z,166.03
2024-04-30T07:51:56.377Z,171.73
2024-04-30T07:52:56.434Z,174.47
2024-04-30T07:53:56.977Z,179.33
2024-04-30T07:54:59.709Z,179.02
2024-04-30T07:55:56.587Z,190.55
2024-04-30T07:56:56.560Z,181.53
2024-04-30T07:57:56.578Z,188.92
2024-04-30T07:58:56.581Z,188.38
2024-04-30T07:59:56.574Z,179.70
2024-04-30T08:00:56.581Z,181.60
2024-04-30T08:01:56.681Z,179.98
2024-04-30T08:02:56.808Z,178.64
2024-04-30T08:03:56.671Z,182.98
2024-04-30T08:04:56.602Z,179.44
2024-04-30T08:06:01.219Z,177.10
2024-04-30T08:06:57.602Z,177.39
2024-04-30T08:07:56.574Z,178.63
2024-04-30T08:08:56.577Z,181.23
2024-04-30T08:09:56.601Z,185.21
2024-04-30T08:10:56.620Z,192.48
2024-04-30T08:11:56.613Z,193.90
2024-04-30T08:12:56.609Z,188.10
2024-04-30T08:13:56.664Z,173.90
2024-04-30T08:14:56.616Z,170.91
2024-04-30T08:15:56.607Z,170.84
2024-04-30T08:16:56.787Z,166.75
2024-04-30T08:17:56.685Z,163.59
2024-04-30T08:19:01.817Z,160.66
2024-04-30T08:20:03.132Z,149.96
2024-04-30T08:20:57.645Z,155.22
2024-04-30T08:21:56.656Z,151.07
2024-04-30T08:22:56.624Z,150.32
2024-04-30T08:23:56.665Z,147.58
2024-04-30T08:24:56.636Z,144.82
2024-04-30T08:25:56.628Z,140.98
2024-04-30T08:26:56.635Z,136.58
2024-04-30T08:27:56.633Z,135.07
2024-04-30T08:28:56.656Z,132.40
2024-04-30T08:29:56.662Z,130.45
2024-04-30T08:30:56.619Z,121.64
2024-04-30T08:31:56.650Z,118.09
2024-04-30T08:32:56.734Z,119.60
2024-04-30T08:33:56.715Z,117.12
2024-04-30T08:34:56.647Z,117.34
2024-04-30T08:35:56.638Z,111.91
2024-04-30T08:36:56.699Z,111.04
2024-04-30T08:38:00.976Z,113.52
2024-04-30T08:38:57.676Z,113.67
2024-04-30T08:39:56.668Z,107.60
2024-04-30T08:40:56.686Z,102.03
2024-04-30T08:41:56.707Z,95.42
2024-04-30T08:42:56.669Z,87.71
2024-04-30T08:43:56.660Z,77.12
2024-04-30T08:44:59.331Z,60.06
2024-04-30T08:45:56.667Z,47.85
2024-04-30T08:46:56.747Z,25.41
2024-04-30T08:47:56.766Z,9.05
2024-04-30T08:48:56.693Z,0.00
2024-04-30T08:50:01.347Z,0.00
2024-04-30T08:50:57.807Z,0.00
2024-04-30T08:51:57.692Z,0.00
2024-04-30T08:52:56.690Z,0.00
2024-04-30T08:53:56.990Z,0.00
2024-04-30T08:54:56.701Z,6.54
2024-04-30T08:55:56.678Z,10.99
2024-04-30T08:56:56.719Z,41.83
2024-04-30T08:57:56.722Z,54.37
2024-04-30T08:58:56.694Z,64.03
2024-04-30T08:59:56.719Z,72.65
2024-04-30T09:00:56.737Z,77.22
2024-04-30T09:01:56.732Z,69.49
2024-04-30T09:02:57.894Z,59.61
2024-04-30T09:03:56.883Z,59.84
2024-04-30T09:04:56.787Z,61.93
2024-04-30T09:05:56.751Z,67.08
2024-04-30T09:06:56.747Z,71.57
2024-04-30T09:07:56.722Z,66.32
2024-04-30T09:08:57.037Z,65.27
2024-04-30T09:09:56.729Z,61.59
2024-04-30T09:10:56.858Z,58.15
2024-04-30T09:11:56.794Z,50.46
2024-04-30T09:12:56.726Z,57.47
2024-04-30T09:13:57.005Z,67.26
2024-04-30T09:14:56.765Z,71.54
2024-04-30T09:15:56.742Z,78.80
2024-04-30T09:16:56.959Z,80.14
2024-04-30T09:17:56.809Z,73.23
2024-04-30T09:18:56.744Z,58.36
2024-04-30T09:19:56.756Z,59.43
2024-04-30T09:20:59.243Z,49.47
2024-04-30T09:21:57.788Z,49.56
2024-04-30T09:22:56.772Z,42.47
2024-04-30T09:23:56.746Z,42.22
2024-04-30T09:24:56.736Z,50.13
2024-04-30T09:25:56.786Z,61.39
2024-04-30T09:26:56.762Z,50.68
2024-04-30T09:27:56.747Z,59.54
2024-04-30T09:28:56.767Z,66.61
2024-04-30T09:29:56.769Z,75.18
2024-04-30T09:30:56.771Z,78.07
2024-04-30T09:31:56.783Z,84.65
2024-04-30T09:32:56.841Z,93.34
2024-04-30T09:33:56.995Z,86.64
2024-04-30T09:34:56.787Z,78.22
2024-04-30T09:35:56.828Z,74.47
2024-04-30T09:36:56.780Z,66.17
2024-04-30T09:37:56.827Z,59.18
2024-04-30T09:38:56.787Z,50.00
2024-04-30T09:39:56.778Z,52.68
2024-04-30T09:40:56.783Z,52.53
2024-04-30T09:41:56.804Z,50.19
2024-04-30T09:42:56.816Z,52.47
2024-04-30T09:43:56.817Z,53.09
2024-04-30T09:44:57.037Z,55.90
2024-04-30T09:45:56.883Z,55.16
2024-04-30T09:46:56.950Z,56.20
2024-04-30T09:47:56.857Z,51.27
2024-04-30T09:48:56.811Z,50.34
2024-04-30T09:49:57.039Z,55.46
2024-04-30T09:50:56.838Z,52.90
2024-04-30T09:51:56.825Z,57.28
2024-04-30T09:52:56.824Z,57.06
2024-04-30T09:53:56.890Z,52.50
2024-04-30T09:54:56.908Z,57.72
2024-04-30T09:55:56.970Z,66.31
2024-04-30T09:56:56.979Z,59.46
2024-04-30T09:57:57.033Z,63.08
2024-04-30T09:58:57.062Z,57.82
2024-04-30T09:59:57.187Z,50.75
2024-04-30T10:00:57.191Z,50.58
2024-04-30T10:01:57.346Z,50.00
2024-04-30T10:02:57.319Z,48.68
2024-04-30T10:03:57.371Z,50.48
2024-04-30T10:04:57.612Z,52.42
2024-04-30T10:05:57.474Z,50.31
2024-04-30T10:06:57.541Z,47.44
2024-04-30T10:07:57.572Z,48.46
2024-04-30T10:08:57.667Z,51.37
2024-04-30T10:09:58.023Z,54.18
2024-04-30T10:10:57.793Z,52.96
2024-04-30T10:11:57.872Z,50.13
2024-04-30T10:12:57.944Z,49.33
2024-04-30T10:13:57.998Z,56.88
2024-04-30T10:14:58.513Z,55.52
2024-04-30T10:15:58.180Z,53.39
2024-04-30T10:16:58.278Z,51.29
2024-04-30T10:17:58.231Z,50.00
2024-04-30T10:18:58.245Z,50.00
2024-04-30T10:19:58.543Z,59.28
2024-04-30T10:20:58.319Z,57.01
2024-04-30T10:21:58.387Z,62.25
2024-04-30T10:22:58.342Z,66.47
2024-04-30T10:23:58.382Z,78.32
2024-04-30T10:24:58.403Z,74.31
2024-04-30T10:25:58.484Z,73.69
2024-04-30T10:26:58.420Z,70.34
2024-04-30T10:27:58.479Z,70.41
2024-04-30T10:28:58.713Z,61.53
2024-04-30T10:29:58.459Z,60.71
2024-04-30T10:30:58.507Z,59.24
2024-04-30T10:31:59.452Z,65.77
2024-04-30T10:32:58.520Z,59.22
2024-04-30T10:33:58.552Z,50.32
2024-04-30T10:34:58.573Z,53.27
2024-04-30T10:35:58.594Z,54.73
2024-04-30T10:36:59.495Z,51.31
2024-04-30T10:38:01.573Z,55.50
2024-04-30T10:38:58.744Z,54.67
2024-04-30T10:39:59.080Z,54.79
2024-04-30T10:40:58.745Z,53.09
2024-04-30T10:41:58.712Z,54.06
2024-04-30T10:42:58.749Z,51.29
2024-04-30T10:44:00.508Z,50.19
2024-04-30T10:44:59.047Z,53.20
2024-04-30T10:45:58.760Z,52.19
2024-04-30T10:46:58.742Z,54.98
2024-04-30T10:47:58.951Z,55.34
2024-04-30T10:48:58.755Z,56.28
2024-04-30T10:50:11.753Z,52.67
2024-04-30T10:50:59.760Z,52.69
2024-04-30T10:51:58.738Z,51.37
2024-04-30T10:52:58.743Z,45.38
2024-04-30T10:53:58.792Z,44.78
2024-04-30T10:54:59.046Z,45.52
2024-04-30T10:56:00.684Z,52.23
2024-04-30T10:56:58.787Z,50.00
2024-04-30T10:57:58.779Z,53.12
2024-04-30T10:58:58.779Z,53.74
2024-04-30T10:59:59.032Z,49.86
2024-04-30T11:00:58.826Z,64.81
2024-04-30T11:01:58.793Z,57.20
2024-04-30T11:02:58.851Z,55.51
2024-04-30T11:03:58.823Z,54.60
2024-04-30T11:04:59.077Z,64.22
2024-04-30T11:05:58.938Z,67.12
2024-04-30T11:06:58.990Z,56.59
2024-04-30T11:07:58.977Z,55.24
2024-04-30T11:08:58.999Z,54.74
2024-04-30T11:09:59.045Z,69.99
2024-04-30T11:10:59.124Z,74.95
2024-04-30T11:11:59.207Z,74.49
2024-04-30T11:12:59.114Z,71.10
2024-04-30T11:14:00.833Z,68.27
2024-04-30T11:14:59.188Z,75.16
2024-04-30T11:16:07.419Z,82.56
2024-04-30T11:17:00.267Z,82.65
2024-04-30T11:17:59.419Z,74.89
2024-04-30T11:18:59.249Z,79.58
2024-04-30T11:19:59.601Z,79.17
2024-04-30T11:20:59.277Z,80.35
2024-04-30T11:21:59.297Z,79.41
2024-04-30T11:22:59.265Z,81.27
2024-04-30T11:23:59.228Z,77.13
2024-04-30T11:24:59.226Z,78.31
2024-04-30T11:25:59.305Z,81.80
2024-04-30T11:26:59.250Z,86.76
2024-04-30T11:27:59.362Z,81.70
2024-04-30T11:29:09.554Z,84.11
2024-04-30T11:30:00.627Z,84.19
2024-04-30T11:30:59.239Z,81.99
2024-04-30T11:31:59.287Z,83.66
2024-04-30T11:32:59.301Z,84.88
2024-04-30T11:33:59.270Z,85.36
2024-04-30T11:34:59.251Z,85.27
2024-04-30T11:35:59.271Z,88.49
2024-04-30T11:36:59.260Z,85.52
2024-04-30T11:37:59.558Z,84.69
2024-04-30T11:38:59.284Z,84.68
2024-04-30T11:39:59.623Z,89.18
2024-04-30T11:40:59.318Z,87.70
2024-04-30T11:42:07.003Z,88.54
2024-04-30T11:43:00.308Z,88.56
2024-04-30T11:43:59.267Z,84.84
2024-04-30T11:44:59.593Z,83.21
2024-04-30T11:46:00.058Z,80.85
2024-04-30T11:46:59.308Z,81.01
2024-04-30T11:47:59.343Z,86.00
2024-04-30T11:48:59.317Z,86.70
2024-04-30T11:49:59.591Z,89.58
2024-04-30T11:50:59.299Z,94.83
2024-04-30T11:51:59.324Z,99.41
2024-04-30T11:52:59.383Z,104.88
2024-04-30T11:53:59.299Z,108.42
2024-04-30T11:54:59.306Z,115.30
2024-04-30T11:55:59.313Z,121.67
2024-04-30T11:56:59.388Z,124.06
2024-04-30T11:57:59.356Z,128.47
2024-04-30T11:58:59.439Z,133.38
2024-04-30T11:59:59.582Z,136.62
2024-04-30T12:00:59.616Z,139.33
2024-04-30T12:01:59.648Z,140.81
2024-04-30T12:02:59.649Z,146.17
2024-04-30T12:03:59.665Z,148.99
2024-04-30T12:04:59.841Z,152.03
2024-04-30T12:05:59.785Z,153.60
2024-04-30T12:06:59.795Z,153.27
2024-04-30T12:07:59.837Z,158.12
2024-04-30T12:08:59.900Z,163.35
2024-04-30T12:09:59.955Z,166.43
2024-04-30T12:11:00.131Z,167.82
2024-04-30T12:12:00.032Z,169.80
2024-04-30T12:13:00.084Z,173.13
2024-04-30T12:14:00.151Z,174.77
2024-04-30T12:15:00.185Z,178.05
2024-04-30T12:16:00.270Z,179.67
2024-04-30T12:17:00.388Z,180.52
2024-04-30T12:18:00.462Z,180.95
2024-04-30T12:19:00.447Z,182.16
2024-04-30T12:20:00.348Z,184.45
2024-04-30T12:21:00.401Z,192.68
2024-04-30T12:22:00.407Z,196.23
2024-04-30T12:23:00.465Z,200.00
2024-04-30T12:24:00.465Z,199.16
2024-04-30T12:25:00.626Z,199.56
2024-04-30T12:26:00.548Z,199.33
2024-04-30T12:27:00.571Z,198.71
2024-04-30T12:28:00.617Z,199.73
2024-04-30T12:29:00.674Z,197.04
2024-04-30T12:30:00.706Z,197.55
2024-04-30T12:31:00.760Z,198.95
2024-04-30T12:32:00.796Z,199.52
2024-04-30T12:33:00.960Z,200.00
2024-04-30T12:34:00.919Z,200.00
2024-04-30T12:35:00.917Z,198.63
2024-04-30T12:36:00.958Z,198.93
2024-04-30T12:37:01.006Z,199.02
2024-04-30T12:38:01.073Z,200.00
2024-04-30T12:39:01.157Z,199.64
2024-04-30T12:40:03.588Z,199.43